Terminal Aerodrome Forecast
Issued by NWS

Home | Current Version | Previous Version | Graphics & Text | Print | Product List | Glossary On
Versions: 1 2 3 4 5 6 7 8 9 10 11 12 13 14 15 16 17 18 19 20 21 22 23 24 25 26
000
FTUS43 KABR 191725
TAFATY
TAF
KATY 191725Z 1918/2018 13018G25KT P6SM OVC011
     FM191900 15020G28KT P6SM SCT015
     FM200000 15018G25KT P6SM BKN030
     FM200100 15018G25KT P6SM VCTS BKN025CB
     FM200200 16018G25KT P6SM SHRA BKN030
      TEMPO 2002/2003 4SM TS OVC015CB
     FM200300 20015G22KT P6SM OVC030
     FM200500 26013KT P6SM BKN040
     FM201500 27011KT P6SM FEW250=

USA.gov is the U.S. government's official web portal to all federal, state and local government web resources and services.